sensor_id;sensor_type;location;lat;lon;timestamp;P1;durP1;ratioP1;P2;durP2;ratioP2
23163;SDS011;31429;42.674;23.350;2022-12-10T00:06:05;44.27;;;24.23;;
23163;SDS011;31429;42.674;23.350;2022-12-10T00:07:12;23.75;;;13.40;;
23163;SDS011;31429;42.674;23.350;2022-12-10T00:08:17;26.05;;;13.93;;
23163;SDS011;31429;42.674;23.350;2022-12-10T00:09:22;42.85;;;24.50;;
23163;SDS011;31429;42.674;23.350;2022-12-10T00:10:47;34.08;;;17.45;;
23163;SDS011;31429;42.674;23.350;2022-12-10T00:11:51;31.52;;;19.10;;
23163;SDS011;31429;42.674;23.350;2022-12-10T00:12:56;27.52;;;13.85;;
23163;SDS011;31429;42.674;23.350;2022-12-10T00:14:02;28.55;;;13.23;;
23163;SDS011;31429;42.674;23.350;2022-12-10T00:15:10;31.42;;;12.90;;
23163;SDS011;31429;42.674;23.350;2022-12-10T00:16:19;34.40;;;18.05;;
23163;SDS011;31429;42.674;23.350;2022-12-10T00:17:27;26.00;;;13.05;;
23163;SDS011;31429;42.674;23.350;2022-12-10T00:18:28;26.63;;;13.13;;
23163;SDS011;31429;42.674;23.350;2022-12-10T00:19:52;23.20;;;12.80;;
23163;SDS011;31429;42.674;23.350;2022-12-10T00:21:01;44.85;;;27.77;;
23163;SDS011;31429;42.674;23.350;2022-12-10T00:22:24;36.83;;;20.15;;
23163;SDS011;31429;42.674;23.350;2022-12-10T00:23:26;30.95;;;14.07;;
23163;SDS011;31429;42.674;23.350;2022-12-10T00:24:31;31.92;;;16.05;;
23163;SDS011;31429;42.674;23.350;2022-12-10T00:25:45;28.08;;;12.30;;
23163;SDS011;31429;42.674;23.350;2022-12-10T00:26:58;22.98;;;12.32;;
23163;SDS011;31429;42.674;23.350;2022-12-10T00:28:03;33.60;;;20.65;;
23163;SDS011;31429;42.674;23.350;2022-12-10T00:29:29;30.27;;;16.23;;
23163;SDS011;31429;42.674;23.350;2022-12-10T00:30:39;24.88;;;13.25;;
23163;SDS011;31429;42.674;23.350;2022-12-10T00:31:52;23.80;;;13.10;;
23163;SDS011;31429;42.674;23.350;2022-12-10T00:32:54;42.33;;;20.65;;
23163;SDS011;31429;42.674;23.350;2022-12-10T00:34:03;30.67;;;18.25;;
23163;SDS011;31429;42.674;23.350;2022-12-10T00:35:08;36.05;;;21.58;;
23163;SDS011;31429;42.674;23.350;2022-12-10T00:36:11;26.13;;;13.35;;
23163;SDS011;31429;42.674;23.350;2022-12-10T00:39:09;24.08;;;12.43;;
23163;SDS011;31429;42.674;23.350;2022-12-10T00:41:31;26.08;;;12.23;;
23163;SDS011;31429;42.674;23.350;2022-12-10T00:42:43;28.73;;;13.07;;
23163;SDS011;31429;42.674;23.350;2022-12-10T00:43:48;22.15;;;12.40;;
23163;SDS011;31429;42.674;23.350;2022-12-10T00:44:50;31.20;;;13.65;;
23163;SDS011;31429;42.674;23.350;2022-12-10T00:46:19;30.17;;;14.90;;
23163;SDS011;31429;42.674;23.350;2022-12-10T00:47:22;22.35;;;11.57;;
23163;SDS011;31429;42.674;23.350;2022-12-10T00:48:24;26.77;;;11.73;;
23163;SDS011;31429;42.674;23.350;2022-12-10T00:51:24;25.98;;;12.05;;
23163;SDS011;31429;42.674;23.350;2022-12-10T00:52:28;32.63;;;19.17;;
23163;SDS011;31429;42.674;23.350;2022-12-10T00:53:37;20.50;;;11.27;;
23163;SDS011;31429;42.674;23.350;2022-12-10T00:54:40;23.58;;;12.32;;
23163;SDS011;31429;42.674;23.350;2022-12-10T00:55:44;26.83;;;12.10;;
23163;SDS011;31429;42.674;23.350;2022-12-10T00:57:25;20.98;;;10.88;;
23163;SDS011;31429;42.674;23.350;2022-12-10T00:58:27;18.65;;;10.55;;
23163;SDS011;31429;42.674;23.350;2022-12-10T00:59:38;22.08;;;11.77;;
23163;SDS011;31429;42.674;23.350;2022-12-10T01:00:48;22.65;;;10.98;;
23163;SDS011;31429;42.674;23.350;2022-12-10T01:02:09;28.02;;;11.68;;
23163;SDS011;31429;42.674;23.350;2022-12-10T01:03:11;22.58;;;11.25;;
23163;SDS011;31429;42.674;23.350;2022-12-10T01:04:14;22.50;;;11.30;;
23163;SDS011;31429;42.674;23.350;2022-12-10T01:05:18;26.05;;;11.55;;
23163;SDS011;31429;42.674;23.350;2022-12-10T01:06:32;17.00;;;10.73;;
23163;SDS011;31429;42.674;23.350;2022-12-10T01:07:38;26.65;;;11.45;;
23163;SDS011;31429;42.674;23.350;2022-12-10T01:08:51;22.25;;;13.38;;
23163;SDS011;31429;42.674;23.350;2022-12-10T01:09:56;20.38;;;11.50;;
23163;SDS011;31429;42.674;23.350;2022-12-10T01:11:20;21.10;;;11.30;;
23163;SDS011;31429;42.674;23.350;2022-12-10T01:12:26;23.73;;;11.80;;
23163;SDS011;31429;42.674;23.350;2022-12-10T01:13:28;23.60;;;11.05;;
23163;SDS011;31429;42.674;23.350;2022-12-10T01:14:35;26.92;;;11.70;;
23163;SDS011;31429;42.674;23.350;2022-12-10T01:15:56;26.45;;;12.27;;
23163;SDS011;31429;42.674;23.350;2022-12-10T01:17:02;21.83;;;11.25;;
23163;SDS011;31429;42.674;23.350;2022-12-10T01:18:26;24.90;;;11.18;;
23163;SDS011;31429;42.674;23.350;2022-12-10T01:19:34;19.30;;;11.77;;
23163;SDS011;31429;42.674;23.350;2022-12-10T01:20:41;18.85;;;11.57;;
23163;SDS011;31429;42.674;23.350;2022-12-10T01:23:23;21.85;;;10.65;;
23163;SDS011;31429;42.674;23.350;2022-12-10T01:24:36;25.08;;;11.02;;
23163;SDS011;31429;42.674;23.350;2022-12-10T01:25:51;23.88;;;10.93;;
23163;SDS011;31429;42.674;23.350;2022-12-10T01:27:21;30.88;;;11.70;;
23163;SDS011;31429;42.674;23.350;2022-12-10T01:28:30;24.98;;;11.88;;
23163;SDS011;31429;42.674;23.350;2022-12-10T01:29:43;21.65;;;10.35;;
23163;SDS011;31429;42.674;23.350;2022-12-10T01:31:08;24.10;;;10.48;;
23163;SDS011;31429;42.674;23.350;2022-12-10T01:32:15;21.67;;;11.05;;
23163;SDS011;31429;42.674;23.350;2022-12-10T01:33:27;20.65;;;11.57;;
23163;SDS011;31429;42.674;23.350;2022-12-10T01:36:17;20.33;;;12.15;;
23163;SDS011;31429;42.674;23.350;2022-12-10T01:37:33;24.25;;;11.60;;
23163;SDS011;31429;42.674;23.350;2022-12-10T01:38:42;28.25;;;12.75;;
23163;SDS011;31429;42.674;23.350;2022-12-10T01:41:52;16.67;;;11.13;;
23163;SDS011;31429;42.674;23.350;2022-12-10T01:43:14;27.60;;;12.25;;
23163;SDS011;31429;42.674;23.350;2022-12-10T01:44:59;20.92;;;11.45;;
23163;SDS011;31429;42.674;23.350;2022-12-10T01:46:08;21.23;;;11.20;;
23163;SDS011;31429;42.674;23.350;2022-12-10T01:47:15;17.77;;;10.95;;
23163;SDS011;31429;42.674;23.350;2022-12-10T01:48:39;20.65;;;10.77;;
23163;SDS011;31429;42.674;23.350;2022-12-10T01:49:51;21.60;;;11.70;;
23163;SDS011;31429;42.674;23.350;2022-12-10T01:51:15;26.38;;;12.05;;
23163;SDS011;31429;42.674;23.350;2022-12-10T01:52:42;21.02;;;10.82;;
23163;SDS011;31429;42.674;23.350;2022-12-10T01:53:46;20.50;;;10.77;;
23163;SDS011;31429;42.674;23.350;2022-12-10T01:55:47;17.23;;;10.48;;
23163;SDS011;31429;42.674;23.350;2022-12-10T01:56:59;18.10;;;10.98;;
23163;SDS011;31429;42.674;23.350;2022-12-10T01:58:10;20.75;;;9.90;;
23163;SDS011;31429;42.674;23.350;2022-12-10T01:59:32;20.48;;;11.10;;
23163;SDS011;31429;42.674;23.350;2022-12-10T02:00:40;21.13;;;10.50;;
23163;SDS011;31429;42.674;23.350;2022-12-10T02:02:08;25.40;;;11.63;;
23163;SDS011;31429;42.674;23.350;2022-12-10T02:03:51;21.42;;;10.65;;
23163;SDS011;31429;42.674;23.350;2022-12-10T02:05:03;23.27;;;11.90;;
23163;SDS011;31429;42.674;23.350;2022-12-10T02:06:22;20.52;;;11.27;;
23163;SDS011;31429;42.674;23.350;2022-12-10T02:08:01;20.52;;;11.38;;
23163;SDS011;31429;42.674;23.350;2022-12-10T02:09:23;15.43;;;9.45;;
23163;SDS011;31429;42.674;23.350;2022-12-10T02:10:39;19.23;;;10.68;;
23163;SDS011;31429;42.674;23.350;2022-12-10T02:11:56;19.17;;;10.48;;
23163;SDS011;31429;42.674;23.350;2022-12-10T02:13:09;23.42;;;10.95;;
23163;SDS011;31429;42.674;23.350;2022-12-10T02:14:22;23.92;;;10.80;;
23163;SDS011;31429;42.674;23.350;2022-12-10T02:15:33;18.52;;;10.98;;
23163;SDS011;31429;42.674;23.350;2022-12-10T02:16:43;20.40;;;10.63;;
23163;SDS011;31429;42.674;23.350;2022-12-10T02:18:02;16.05;;;9.90;;
23163;SDS011;31429;42.674;23.350;2022-12-10T02:19:10;17.38;;;10.32;;
23163;SDS011;31429;42.674;23.350;2022-12-10T02:20:29;17.48;;;9.88;;
23163;SDS011;31429;42.674;23.350;2022-12-10T02:21:37;22.92;;;10.73;;
23163;SDS011;31429;42.674;23.350;2022-12-10T02:22:49;18.23;;;10.38;;
23163;SDS011;31429;42.674;23.350;2022-12-10T02:24:00;24.23;;;10.57;;
23163;SDS011;31429;42.674;23.350;2022-12-10T02:25:06;24.25;;;10.45;;
23163;SDS011;31429;42.674;23.350;2022-12-10T02:26:15;21.35;;;10.57;;
23163;SDS011;31429;42.674;23.350;2022-12-10T02:27:39;18.70;;;9.98;;
23163;SDS011;31429;42.674;23.350;2022-12-10T02:28:46;23.65;;;10.35;;
23163;SDS011;31429;42.674;23.350;2022-12-10T02:29:58;19.92;;;11.05;;
23163;SDS011;31429;42.674;23.350;2022-12-10T02:31:03;26.10;;;10.40;;
23163;SDS011;31429;42.674;23.350;2022-12-10T02:32:06;21.25;;;10.30;;
23163;SDS011;31429;42.674;23.350;2022-12-10T02:33:12;17.65;;;9.63;;
23163;SDS011;31429;42.674;23.350;2022-12-10T02:34:21;19.13;;;9.90;;
23163;SDS011;31429;42.674;23.350;2022-12-10T02:35:31;21.85;;;10.27;;
23163;SDS011;31429;42.674;23.350;2022-12-10T02:36:39;18.33;;;9.25;;
23163;SDS011;31429;42.674;23.350;2022-12-10T02:37:45;23.25;;;10.18;;
23163;SDS011;31429;42.674;23.350;2022-12-10T02:38:50;18.30;;;9.40;;
23163;SDS011;31429;42.674;23.350;2022-12-10T02:39:59;16.48;;;9.40;;
23163;SDS011;31429;42.674;23.350;2022-12-10T02:41:45;20.33;;;9.32;;
23163;SDS011;31429;42.674;23.350;2022-12-10T02:42:54;15.63;;;9.05;;
23163;SDS011;31429;42.674;23.350;2022-12-10T02:43:57;22.80;;;9.95;;
23163;SDS011;31429;42.674;23.350;2022-12-10T02:45:11;16.42;;;9.45;;
23163;SDS011;31429;42.674;23.350;2022-12-10T02:46:13;20.55;;;10.38;;
23163;SDS011;31429;42.674;23.350;2022-12-10T02:47:18;20.77;;;10.48;;
23163;SDS011;31429;42.674;23.350;2022-12-10T02:48:22;16.67;;;9.68;;
23163;SDS011;31429;42.674;23.350;2022-12-10T02:49:28;15.80;;;8.98;;
23163;SDS011;31429;42.674;23.350;2022-12-10T02:50:41;23.90;;;10.55;;
23163;SDS011;31429;42.674;23.350;2022-12-10T02:52:08;20.02;;;9.52;;
23163;SDS011;31429;42.674;23.350;2022-12-10T02:53:13;16.95;;;9.80;;
23163;SDS011;31429;42.674;23.350;2022-12-10T02:54:36;21.55;;;9.82;;
23163;SDS011;31429;42.674;23.350;2022-12-10T02:55:50;17.50;;;10.07;;
23163;SDS011;31429;42.674;23.350;2022-12-10T02:57:19;15.18;;;9.82;;
23163;SDS011;31429;42.674;23.350;2022-12-10T02:58:31;16.17;;;10.18;;
23163;SDS011;31429;42.674;23.350;2022-12-10T03:00:00;22.27;;;10.35;;
23163;SDS011;31429;42.674;23.350;2022-12-10T03:01:10;19.65;;;10.18;;
23163;SDS011;31429;42.674;23.350;2022-12-10T03:02:23;20.83;;;10.13;;
23163;SDS011;31429;42.674;23.350;2022-12-10T03:03:48;16.00;;;9.02;;
23163;SDS011;31429;42.674;23.350;2022-12-10T03:04:56;24.40;;;10.93;;
23163;SDS011;31429;42.674;23.350;2022-12-10T03:06:04;19.08;;;10.32;;
23163;SDS011;31429;42.674;23.350;2022-12-10T03:07:14;16.48;;;9.50;;
23163;SDS011;31429;42.674;23.350;2022-12-10T03:08:32;22.10;;;10.18;;
23163;SDS011;31429;42.674;23.350;2022-12-10T03:09:45;19.20;;;10.25;;
23163;SDS011;31429;42.674;23.350;2022-12-10T03:10:52;16.63;;;10.05;;
23163;SDS011;31429;42.674;23.350;2022-12-10T03:11:59;16.73;;;9.52;;
23163;SDS011;31429;42.674;23.350;2022-12-10T03:13:13;20.55;;;10.35;;
23163;SDS011;31429;42.674;23.350;2022-12-10T03:14:42;15.18;;;10.13;;
23163;SDS011;31429;42.674;23.350;2022-12-10T03:15:57;21.73;;;10.88;;
23163;SDS011;31429;42.674;23.350;2022-12-10T03:17:05;24.05;;;10.75;;
23163;SDS011;31429;42.674;23.350;2022-12-10T03:18:08;23.42;;;11.40;;
23163;SDS011;31429;42.674;23.350;2022-12-10T03:19:32;25.92;;;10.80;;
23163;SDS011;31429;42.674;23.350;2022-12-10T03:20:38;21.13;;;11.57;;
23163;SDS011;31429;42.674;23.350;2022-12-10T03:21:44;18.55;;;10.55;;
23163;SDS011;31429;42.674;23.350;2022-12-10T03:22:49;21.50;;;10.48;;
23163;SDS011;31429;42.674;23.350;2022-12-10T03:24:04;15.57;;;10.07;;
23163;SDS011;31429;42.674;23.350;2022-12-10T03:25:13;18.15;;;10.15;;
23163;SDS011;31429;42.674;23.350;2022-12-10T03:26:23;20.92;;;10.68;;
23163;SDS011;31429;42.674;23.350;2022-12-10T03:27:54;19.38;;;9.98;;
23163;SDS011;31429;42.674;23.350;2022-12-10T03:29:01;19.67;;;11.48;;
23163;SDS011;31429;42.674;23.350;2022-12-10T03:30:28;15.65;;;9.95;;
23163;SDS011;31429;42.674;23.350;2022-12-10T03:31:40;21.83;;;10.82;;
23163;SDS011;31429;42.674;23.350;2022-12-10T03:32:48;23.85;;;10.23;;
23163;SDS011;31429;42.674;23.350;2022-12-10T03:33:52;14.20;;;9.25;;
23163;SDS011;31429;42.674;23.350;2022-12-10T03:34:56;21.17;;;10.45;;
23163;SDS011;31429;42.674;23.350;2022-12-10T03:36:05;18.67;;;9.52;;
23163;SDS011;31429;42.674;23.350;2022-12-10T03:37:11;19.13;;;9.85;;
23163;SDS011;31429;42.674;23.350;2022-12-10T03:38:18;15.55;;;8.93;;
23163;SDS011;31429;42.674;23.350;2022-12-10T03:39:24;15.68;;;10.15;;
23163;SDS011;31429;42.674;23.350;2022-12-10T03:40:29;25.08;;;9.95;;
23163;SDS011;31429;42.674;23.350;2022-12-10T03:41:34;15.55;;;8.52;;
23163;SDS011;31429;42.674;23.350;2022-12-10T03:42:36;17.13;;;8.93;;
23163;SDS011;31429;42.674;23.350;2022-12-10T03:43:52;18.88;;;9.38;;
23163;SDS011;31429;42.674;23.350;2022-12-10T03:44:57;17.02;;;8.48;;
23163;SDS011;31429;42.674;23.350;2022-12-10T03:46:08;15.63;;;9.00;;
23163;SDS011;31429;42.674;23.350;2022-12-10T03:47:10;16.27;;;8.48;;
23163;SDS011;31429;42.674;23.350;2022-12-10T03:48:15;14.88;;;7.88;;
23163;SDS011;31429;42.674;23.350;2022-12-10T03:49:18;20.00;;;8.57;;
23163;SDS011;31429;42.674;23.350;2022-12-10T03:50:22;15.73;;;8.50;;
23163;SDS011;31429;42.674;23.350;2022-12-10T03:51:26;14.23;;;8.25;;
23163;SDS011;31429;42.674;23.350;2022-12-10T03:52:27;16.33;;;8.55;;
23163;SDS011;31429;42.674;23.350;2022-12-10T03:53:34;12.60;;;8.10;;
23163;SDS011;31429;42.674;23.350;2022-12-10T03:54:35;14.60;;;8.82;;
23163;SDS011;31429;42.674;23.350;2022-12-10T03:55:58;12.73;;;8.23;;
23163;SDS011;31429;42.674;23.350;2022-12-10T03:57:04;10.95;;;8.30;;
23163;SDS011;31429;42.674;23.350;2022-12-10T03:58:27;13.38;;;8.48;;
23163;SDS011;31429;42.674;23.350;2022-12-10T03:59:44;18.85;;;8.80;;
23163;SDS011;31429;42.674;23.350;2022-12-10T04:01:05;16.45;;;8.77;;
23163;SDS011;31429;42.674;23.350;2022-12-10T04:02:11;19.27;;;9.25;;
23163;SDS011;31429;42.674;23.350;2022-12-10T04:03:17;21.10;;;9.45;;
23163;SDS011;31429;42.674;23.350;2022-12-10T04:04:44;17.27;;;10.23;;
23163;SDS011;31429;42.674;23.350;2022-12-10T04:05:48;16.33;;;9.65;;
23163;SDS011;31429;42.674;23.350;2022-12-10T04:06:50;15.35;;;9.43;;
23163;SDS011;31429;42.674;23.350;2022-12-10T04:08:14;15.65;;;9.43;;
23163;SDS011;31429;42.674;23.350;2022-12-10T04:09:16;17.67;;;10.02;;
23163;SDS011;31429;42.674;23.350;2022-12-10T04:10:21;18.48;;;9.43;;
23163;SDS011;31429;42.674;23.350;2022-12-10T04:12:04;19.67;;;9.35;;
23163;SDS011;31429;42.674;23.350;2022-12-10T04:13:09;16.90;;;9.02;;
23163;SDS011;31429;42.674;23.350;2022-12-10T04:14:29;15.32;;;8.85;;
23163;SDS011;31429;42.674;23.350;2022-12-10T04:15:49;19.40;;;9.73;;
23163;SDS011;31429;42.674;23.350;2022-12-10T04:17:10;15.52;;;9.18;;
23163;SDS011;31429;42.674;23.350;2022-12-10T04:18:36;15.88;;;9.32;;
23163;SDS011;31429;42.674;23.350;2022-12-10T04:19:42;16.70;;;9.00;;
23163;SDS011;31429;42.674;23.350;2022-12-10T04:20:45;18.73;;;10.95;;
23163;SDS011;31429;42.674;23.350;2022-12-10T04:22:21;13.30;;;9.35;;
23163;SDS011;31429;42.674;23.350;2022-12-10T04:23:44;17.40;;;10.05;;
23163;SDS011;31429;42.674;23.350;2022-12-10T04:25:06;17.65;;;9.50;;
23163;SDS011;31429;42.674;23.350;2022-12-10T04:26:30;19.63;;;10.75;;
23163;SDS011;31429;42.674;23.350;2022-12-10T04:27:53;17.58;;;9.63;;
23163;SDS011;31429;42.674;23.350;2022-12-10T04:28:57;21.05;;;11.00;;
23163;SDS011;31429;42.674;23.350;2022-12-10T04:32:29;15.82;;;9.63;;
23163;SDS011;31429;42.674;23.350;2022-12-10T04:33:40;20.98;;;11.48;;
23163;SDS011;31429;42.674;23.350;2022-12-10T04:34:51;18.08;;;10.88;;
23163;SDS011;31429;42.674;23.350;2022-12-10T04:39:18;23.40;;;11.50;;
23163;SDS011;31429;42.674;23.350;2022-12-10T04:40:38;21.10;;;10.43;;
23163;SDS011;31429;42.674;23.350;2022-12-10T04:42:03;19.80;;;11.15;;
23163;SDS011;31429;42.674;23.350;2022-12-10T04:43:51;16.92;;;11.35;;
23163;SDS011;31429;42.674;23.350;2022-12-10T04:45:18;17.42;;;10.73;;
23163;SDS011;31429;42.674;23.350;2022-12-10T04:46:48;22.33;;;10.68;;
23163;SDS011;31429;42.674;23.350;2022-12-10T04:48:05;20.13;;;11.40;;
23163;SDS011;31429;42.674;23.350;2022-12-10T04:57:26;49.67;;;30.05;;
23163;SDS011;31429;42.674;23.350;2022-12-10T04:58:32;61.17;;;37.85;;
23163;SDS011;31429;42.674;23.350;2022-12-10T04:59:46;75.55;;;48.75;;
23163;SDS011;31429;42.674;23.350;2022-12-10T05:01:41;41.45;;;24.85;;
23163;SDS011;31429;42.674;23.350;2022-12-10T05:03:21;23.52;;;12.57;;
23163;SDS011;31429;42.674;23.350;2022-12-10T05:05:59;20.77;;;12.52;;
23163;SDS011;31429;42.674;23.350;2022-12-10T05:09:10;116.38;;;74.82;;
23163;SDS011;31429;42.674;23.350;2022-12-10T05:16:38;22.90;;;12.05;;
23163;SDS011;31429;42.674;23.350;2022-12-10T05:17:55;26.02;;;15.73;;
23163;SDS011;31429;42.674;23.350;2022-12-10T05:19:23;26.10;;;15.38;;
23163;SDS011;31429;42.674;23.350;2022-12-10T05:21:01;48.33;;;31.15;;
23163;SDS011;31429;42.674;23.350;2022-12-10T05:22:16;44.45;;;23.83;;
23163;SDS011;31429;42.674;23.350;2022-12-10T05:23:52;19.48;;;12.50;;
23163;SDS011;31429;42.674;23.350;2022-12-10T05:25:16;44.00;;;28.88;;
23163;SDS011;31429;42.674;23.350;2022-12-10T05:26:40;42.00;;;29.25;;
23163;SDS011;31429;42.674;23.350;2022-12-10T05:28:43;31.20;;;17.75;;
23163;SDS011;31429;42.674;23.350;2022-12-10T05:30:11;23.45;;;14.05;;
23163;SDS011;31429;42.674;23.350;2022-12-10T05:33:42;24.92;;;14.35;;
23163;SDS011;31429;42.674;23.350;2022-12-10T05:36:31;25.42;;;15.70;;
23163;SDS011;31429;42.674;23.350;2022-12-10T05:37:48;26.63;;;15.18;;
23163;SDS011;31429;42.674;23.350;2022-12-10T05:39:11;25.25;;;13.88;;
23163;SDS011;31429;42.674;23.350;2022-12-10T05:40:44;23.65;;;14.65;;
23163;SDS011;31429;42.674;23.350;2022-12-10T05:42:17;29.77;;;14.95;;
23163;SDS011;31429;42.674;23.350;2022-12-10T05:43:32;24.70;;;14.65;;
23163;SDS011;31429;42.674;23.350;2022-12-10T05:44:35;25.10;;;14.55;;
23163;SDS011;31429;42.674;23.350;2022-12-10T05:46:06;24.05;;;14.00;;
23163;SDS011;31429;42.674;23.350;2022-12-10T05:47:36;33.25;;;18.85;;
23163;SDS011;31429;42.674;23.350;2022-12-10T05:48:46;24.77;;;14.27;;
23163;SDS011;31429;42.674;23.350;2022-12-10T05:50:14;22.55;;;13.55;;
23163;SDS011;31429;42.674;23.350;2022-12-10T05:51:43;29.42;;;14.75;;
23163;SDS011;31429;42.674;23.350;2022-12-10T05:53:11;27.40;;;14.45;;
23163;SDS011;31429;42.674;23.350;2022-12-10T05:54:37;23.30;;;14.65;;
23163;SDS011;31429;42.674;23.350;2022-12-10T05:56:08;23.48;;;17.13;;
23163;SDS011;31429;42.674;23.350;2022-12-10T06:54:03;33.30;;;18.80;;
23163;SDS011;31429;42.674;23.350;2022-12-10T06:55:27;24.23;;;18.13;;
23163;SDS011;31429;42.674;23.350;2022-12-10T06:56:53;28.65;;;17.55;;
23163;SDS011;31429;42.674;23.350;2022-12-10T06:58:20;25.67;;;16.15;;
23163;SDS011;31429;42.674;23.350;2022-12-10T06:59:34;23.38;;;15.63;;
23163;SDS011;31429;42.674;23.350;2022-12-10T07:01:05;30.30;;;16.80;;
23163;SDS011;31429;42.674;23.350;2022-12-10T07:03:36;29.05;;;16.92;;
23163;SDS011;31429;42.674;23.350;2022-12-10T07:05:21;27.85;;;16.65;;
23163;SDS011;31429;42.674;23.350;2022-12-10T07:08:17;27.05;;;15.65;;
23163;SDS011;31429;42.674;23.350;2022-12-10T07:09:51;29.98;;;16.20;;
23163;SDS011;31429;42.674;23.350;2022-12-10T07:11:03;32.38;;;17.45;;
23163;SDS011;31429;42.674;23.350;2022-12-10T07:12:40;28.60;;;16.63;;
23163;SDS011;31429;42.674;23.350;2022-12-10T07:14:05;30.33;;;16.45;;
23163;SDS011;31429;42.674;23.350;2022-12-10T07:15:18;30.83;;;17.02;;
23163;SDS011;31429;42.674;23.350;2022-12-10T07:16:27;25.20;;;17.80;;
23163;SDS011;31429;42.674;23.350;2022-12-10T07:17:54;35.53;;;18.65;;
23163;SDS011;31429;42.674;23.350;2022-12-10T07:19:34;29.25;;;17.35;;
23163;SDS011;31429;42.674;23.350;2022-12-10T07:21:15;29.75;;;18.92;;
23163;SDS011;31429;42.674;23.350;2022-12-10T07:22:49;29.10;;;19.85;;
23163;SDS011;31429;42.674;23.350;2022-12-10T07:24:21;31.17;;;18.25;;
23163;SDS011;31429;42.674;23.350;2022-12-10T07:29:50;29.40;;;19.00;;
23163;SDS011;31429;42.674;23.350;2022-12-10T09:34:32;57.37;;;41.43;;
23163;SDS011;31429;42.674;23.350;2022-12-10T09:35:34;63.08;;;43.42;;
23163;SDS011;31429;42.674;23.350;2022-12-10T09:36:34;46.47;;;32.83;;
23163;SDS011;31429;42.674;23.350;2022-12-10T09:37:35;30.60;;;22.03;;
23163;SDS011;31429;42.674;23.350;2022-12-10T09:38:37;27.45;;;19.90;;
23163;SDS011;31429;42.674;23.350;2022-12-10T09:39:39;31.20;;;21.92;;
23163;SDS011;31429;42.674;23.350;2022-12-10T09:40:41;35.25;;;22.08;;
23163;SDS011;31429;42.674;23.350;2022-12-10T09:41:50;32.45;;;21.67;;
23163;SDS011;31429;42.674;23.350;2022-12-10T09:43:14;31.35;;;21.80;;
23163;SDS011;31429;42.674;23.350;2022-12-10T09:44:25;28.20;;;21.80;;
23163;SDS011;31429;42.674;23.350;2022-12-10T09:45:39;28.83;;;20.05;;
23163;SDS011;31429;42.674;23.350;2022-12-10T09:46:53;26.17;;;18.37;;
23163;SDS011;31429;42.674;23.350;2022-12-10T09:47:59;25.10;;;18.05;;
23163;SDS011;31429;42.674;23.350;2022-12-10T09:49:30;25.70;;;18.37;;
23163;SDS011;31429;42.674;23.350;2022-12-10T09:50:44;25.17;;;18.07;;
23163;SDS011;31429;42.674;23.350;2022-12-10T09:51:54;27.10;;;18.40;;
23163;SDS011;31429;42.674;23.350;2022-12-10T09:53:00;30.67;;;20.73;;
23163;SDS011;31429;42.674;23.350;2022-12-10T09:54:24;25.00;;;19.43;;
23163;SDS011;31429;42.674;23.350;2022-12-10T09:55:53;47.53;;;40.00;;
23163;SDS011;31429;42.674;23.350;2022-12-10T09:56:59;48.50;;;37.17;;
23163;SDS011;31429;42.674;23.350;2022-12-10T09:58:32;44.00;;;34.20;;
23163;SDS011;31429;42.674;23.350;2022-12-10T10:00:03;42.97;;;34.20;;
23163;SDS011;31429;42.674;23.350;2022-12-10T10:01:36;47.77;;;34.97;;
23163;SDS011;31429;42.674;23.350;2022-12-10T10:03:09;40.57;;;30.57;;
23163;SDS011;31429;42.674;23.350;2022-12-10T10:04:16;49.83;;;40.30;;
23163;SDS011;31429;42.674;23.350;2022-12-10T10:05:22;40.20;;;30.43;;
23163;SDS011;31429;42.674;23.350;2022-12-10T10:06:28;42.43;;;30.33;;
23163;SDS011;31429;42.674;23.350;2022-12-10T10:07:34;29.63;;;20.27;;
23163;SDS011;31429;42.674;23.350;2022-12-10T10:08:41;30.07;;;19.60;;
23163;SDS011;31429;42.674;23.350;2022-12-10T10:09:50;28.77;;;20.27;;
23163;SDS011;31429;42.674;23.350;2022-12-10T10:11:01;25.03;;;18.10;;
23163;SDS011;31429;42.674;23.350;2022-12-10T10:12:28;30.73;;;21.23;;
23163;SDS011;31429;42.674;23.350;2022-12-10T10:13:54;31.27;;;18.30;;
23163;SDS011;31429;42.674;23.350;2022-12-10T10:15:10;20.00;;;15.30;;
23163;SDS011;31429;42.674;23.350;2022-12-10T10:16:24;22.07;;;15.00;;
23163;SDS011;31429;42.674;23.350;2022-12-10T10:17:31;20.90;;;14.17;;
23163;SDS011;31429;42.674;23.350;2022-12-10T10:18:41;25.47;;;15.90;;
23163;SDS011;31429;42.674;23.350;2022-12-10T10:19:48;22.50;;;14.67;;
23163;SDS011;31429;42.674;23.350;2022-12-10T10:20:53;23.57;;;16.77;;
23163;SDS011;31429;42.674;23.350;2022-12-10T10:22:04;16.67;;;14.60;;
23163;SDS011;31429;42.674;23.350;2022-12-10T10:23:15;20.83;;;13.47;;
23163;SDS011;31429;42.674;23.350;2022-12-10T10:24:22;30.23;;;18.53;;
23163;SDS011;31429;42.674;23.350;2022-12-10T10:25:32;18.87;;;14.70;;
23163;SDS011;31429;42.674;23.350;2022-12-10T10:26:43;22.97;;;14.70;;
23163;SDS011;31429;42.674;23.350;2022-12-10T10:27:53;22.03;;;13.60;;
23163;SDS011;31429;42.674;23.350;2022-12-10T10:29:05;19.33;;;13.93;;
23163;SDS011;31429;42.674;23.350;2022-12-10T10:30:13;27.17;;;18.73;;
23163;SDS011;31429;42.674;23.350;2022-12-10T10:31:20;26.50;;;15.93;;
23163;SDS011;31429;42.674;23.350;2022-12-10T10:32:55;25.90;;;18.60;;
23163;SDS011;31429;42.674;23.350;2022-12-10T10:34:30;21.03;;;15.10;;
23163;SDS011;31429;42.674;23.350;2022-12-10T10:36:01;24.17;;;16.73;;
23163;SDS011;31429;42.674;23.350;2022-12-10T10:37:06;27.20;;;15.63;;
23163;SDS011;31429;42.674;23.350;2022-12-10T10:38:18;19.97;;;13.67;;
23163;SDS011;31429;42.674;23.350;2022-12-10T10:39:29;27.90;;;18.43;;
23163;SDS011;31429;42.674;23.350;2022-12-10T10:40:39;24.97;;;17.40;;
23163;SDS011;31429;42.674;23.350;2022-12-10T10:41:47;33.00;;;21.17;;
23163;SDS011;31429;42.674;23.350;2022-12-10T10:42:56;24.97;;;15.33;;
23163;SDS011;31429;42.674;23.350;2022-12-10T10:44:12;24.03;;;17.07;;
23163;SDS011;31429;42.674;23.350;2022-12-10T10:45:39;27.10;;;17.90;;
23163;SDS011;31429;42.674;23.350;2022-12-10T10:46:55;20.93;;;16.33;;
23163;SDS011;31429;42.674;23.350;2022-12-10T10:48:05;22.40;;;16.80;;
23163;SDS011;31429;42.674;23.350;2022-12-10T10:49:30;20.27;;;14.83;;
23163;SDS011;31429;42.674;23.350;2022-12-10T10:50:55;20.23;;;12.93;;
23163;SDS011;31429;42.674;23.350;2022-12-10T10:52:35;27.83;;;13.67;;
23163;SDS011;31429;42.674;23.350;2022-12-10T10:53:47;22.00;;;14.13;;
23163;SDS011;31429;42.674;23.350;2022-12-10T10:55:29;23.80;;;13.30;;
23163;SDS011;31429;42.674;23.350;2022-12-10T10:56:40;20.60;;;13.23;;
23163;SDS011;31429;42.674;23.350;2022-12-10T10:58:21;18.40;;;13.63;;
23163;SDS011;31429;42.674;23.350;2022-12-10T10:59:29;22.83;;;14.90;;
23163;SDS011;31429;42.674;23.350;2022-12-10T11:00:53;21.93;;;13.67;;
23163;SDS011;31429;42.674;23.350;2022-12-10T11:02:29;19.73;;;13.00;;
23163;SDS011;31429;42.674;23.350;2022-12-10T11:04:01;21.53;;;14.77;;
23163;SDS011;31429;42.674;23.350;2022-12-10T11:05:50;24.63;;;14.47;;